createdAt,value
2023-03-22T00:00:59.260Z,0
2023-03-22T00:06:22.142Z,0
2023-03-22T00:11:47.172Z,0
2023-03-22T00:17:09.566Z,0
2023-03-22T00:22:32.094Z,0
2023-03-22T00:27:54.822Z,0
2023-03-22T00:33:18.085Z,0
2023-03-22T00:44:25.035Z,0
2023-03-22T00:49:57.014Z,0
2023-03-22T00:55:19.467Z,0
2023-03-22T01:00:42.664Z,0
2023-03-22T01:06:05.518Z,0
2023-03-22T01:11:31.211Z,0
2023-03-22T01:16:56.036Z,0
2023-03-22T01:22:18.647Z,0
2023-03-22T01:27:41.213Z,0
2023-03-22T01:33:03.599Z,0
2023-03-22T01:38:33.557Z,0
2023-03-22T01:43:56.212Z,0
2023-03-22T01:49:18.626Z,0
2023-03-22T01:54:50.324Z,0
2023-03-22T02:00:12.944Z,0
2023-03-22T02:05:35.439Z,0
2023-03-22T02:10:57.788Z,0
2023-03-22T02:16:20.535Z,0
2023-03-22T02:21:43.098Z,0
2023-03-22T02:27:05.328Z,0
2023-03-22T02:32:30.391Z,0
2023-03-22T02:37:52.815Z,0
2023-03-22T02:43:18.222Z,0
2023-03-22T02:48:40.575Z,0
2023-03-22T02:54:03.322Z,0
2023-03-22T02:59:30.762Z,0
2023-03-22T03:04:56.593Z,0
2023-03-22T03:10:19.162Z,0
2023-03-22T03:15:41.862Z,0
2023-03-22T03:21:04.140Z,0
2023-03-22T03:26:26.704Z,0
2023-03-22T03:37:15.265Z,0
2023-03-22T03:42:40.634Z,0
2023-03-22T03:48:12.355Z,0
2023-03-22T03:53:35.100Z,0
2023-03-22T03:59:00.563Z,0
2023-03-22T04:04:23.427Z,0
2023-03-22T04:09:45.850Z,0
2023-03-22T04:15:08.352Z,0
2023-03-22T04:20:30.704Z,0
2023-03-22T04:26:10.822Z,0
2023-03-22T04:31:33.360Z,0
2023-03-22T04:36:55.595Z,0
2023-03-22T04:42:20.905Z,0
2023-03-22T04:47:45.931Z,0
2023-03-22T04:53:08.723Z,0
2023-03-22T04:58:34.602Z,0
2023-03-22T05:03:56.973Z,0
2023-03-22T05:09:23.828Z,0
2023-03-22T05:14:49.544Z,0
2023-03-22T05:20:12.360Z,0
2023-03-22T05:25:35.000Z,0
2023-03-22T05:30:57.604Z,4
2023-03-22T05:36:20.159Z,12
2023-03-22T05:41:42.854Z,17.5
2023-03-22T05:47:05.338Z,17.5
2023-03-22T05:52:27.824Z,27.4
2023-03-22T05:57:50.446Z,38.9
2023-03-22T06:03:17.059Z,54.1
2023-03-22T06:08:39.913Z,64.7
2023-03-22T06:14:02.714Z,59.4
2023-03-22T06:19:25.165Z,68.1
2023-03-22T06:24:48.029Z,107
2023-03-22T06:30:10.484Z,128.5
2023-03-22T06:35:33.441Z,145.6
2023-03-22T06:40:56.336Z,123.6
2023-03-22T06:46:28.064Z,139.1
2023-03-22T06:51:56.488Z,194.4
2023-03-22T06:57:19.338Z,185.3
2023-03-22T07:02:41.675Z,93.9
2023-03-22T07:08:06.499Z,77.7
2023-03-22T07:19:03.688Z,160.8
2023-03-22T07:24:29.429Z,184.9
2023-03-22T07:29:51.830Z,198.7
2023-03-22T07:35:14.317Z,271.7
2023-03-22T07:40:37.491Z,227.1
2023-03-22T07:46:05.866Z,145.8
2023-03-22T07:51:28.215Z,118.6
2023-03-22T07:56:51.168Z,128.2
2023-03-22T08:02:13.808Z,223.5
2023-03-22T08:07:39.324Z,329.7
2023-03-22T08:13:05.089Z,333.5
2023-03-22T08:18:27.412Z,204.1
2023-03-22T08:23:50.214Z,145.9
2023-03-22T08:29:12.765Z,173.5
2023-03-22T08:34:35.422Z,181.4
2023-03-22T08:40:01.241Z,246
2023-03-22T08:45:24.068Z,315
2023-03-22T08:50:50.161Z,344.5
2023-03-22T08:56:14.926Z,340
2023-03-22T09:06:48.496Z,263.2
2023-03-22T09:12:13.497Z,229.6
2023-03-22T09:17:36.085Z,190.6
2023-03-22T09:22:58.652Z,225.1
2023-03-22T09:28:21.768Z,200.1
2023-03-22T09:34:10.530Z,280.8
2023-03-22T09:39:33.473Z,356.6
2023-03-22T09:44:56.686Z,767.6
2023-03-22T09:50:20.699Z,1054.3
2023-03-22T09:55:44.018Z,1014.2
2023-03-22T10:01:06.850Z,637.1
2023-03-22T10:06:29.781Z,423.7
2023-03-22T10:12:01.034Z,383.9
2023-03-22T10:17:26.757Z,447.1
2023-03-22T10:22:53.178Z,426.2
2023-03-22T10:28:18.727Z,382.5
2023-03-22T10:33:44.526Z,355.5
2023-03-22T10:39:07.176Z,415.3
2023-03-22T10:44:38.478Z,455.4
2023-03-22T10:50:10.169Z,496
2023-03-22T10:55:32.941Z,538.8
2023-03-22T11:00:58.848Z,422.1
2023-03-22T11:06:38.149Z,340.9
2023-03-22T11:12:00.596Z,347
2023-03-22T11:17:23.314Z,386.7
2023-03-22T11:22:46.443Z,458.9
2023-03-22T11:33:35.407Z,465.9
2023-03-22T11:44:33.335Z,375.5
2023-03-22T11:49:58.855Z,465.7
2023-03-22T11:55:31.681Z,488.2
2023-03-22T12:00:54.445Z,508.3
2023-03-22T12:06:17.351Z,403.4
2023-03-22T12:11:39.781Z,310.6
2023-03-22T12:17:01.946Z,244.1
2023-03-22T12:22:24.441Z,277.8
2023-03-22T12:27:55.929Z,250.5
2023-03-22T12:33:18.758Z,255.8
2023-03-22T12:38:44.577Z,240.6
2023-03-22T12:44:07.023Z,376.1
2023-03-22T12:49:29.812Z,380
2023-03-22T12:54:52.542Z,368.3
2023-03-22T13:00:15.161Z,377.4
2023-03-22T13:05:55.597Z,374.4
2023-03-22T13:11:18.242Z,343.4
2023-03-22T13:17:01.746Z,270.1
2023-03-22T13:22:27.158Z,206
2023-03-22T13:27:49.426Z,249.9
2023-03-22T13:33:12.303Z,264.7
2023-03-22T13:38:51.715Z,229.4
2023-03-22T13:44:14.332Z,169.9
2023-03-22T13:49:36.545Z,129.6
2023-03-22T13:54:58.762Z,141
2023-03-22T14:00:30.366Z,149.4
2023-03-22T14:05:56.811Z,204.3
2023-03-22T14:11:23.234Z,229
2023-03-22T14:16:46.031Z,239.3
2023-03-22T14:49:07.049Z,281.6
2023-03-22T14:54:29.614Z,256.1
2023-03-22T14:59:52.358Z,286.3
2023-03-22T15:05:15.644Z,244.6
2023-03-22T15:10:38.251Z,181.7
2023-03-22T15:16:00.582Z,148.5
2023-03-22T15:21:26.587Z,131.1
2023-03-22T15:26:49.449Z,142
2023-03-22T15:32:11.818Z,176.8
2023-03-22T15:37:42.463Z,188.6
2023-03-22T15:43:04.944Z,179.5
2023-03-22T15:48:27.289Z,163.4
2023-03-22T15:53:50.353Z,146
2023-03-22T15:59:12.897Z,156.4
2023-03-22T16:04:35.423Z,124.4
2023-03-22T16:09:57.931Z,123.4
2023-03-22T16:15:21.343Z,129.9
2023-03-22T16:20:43.950Z,113.1
2023-03-22T16:26:06.393Z,103.2
2023-03-22T16:31:45.352Z,68.3
2023-03-22T16:37:18.914Z,44.7
2023-03-22T16:42:41.718Z,42.7
2023-03-22T16:48:04.416Z,46.4
2023-03-22T16:53:37.738Z,51.1
2023-03-22T16:59:11.856Z,34.1
2023-03-22T17:04:34.571Z,31.9
2023-03-22T17:09:57.604Z,29.3
2023-03-22T17:15:20.381Z,17.5
2023-03-22T17:20:43.237Z,16.8
2023-03-22T17:26:08.562Z,14
2023-03-22T17:31:31.374Z,9
2023-03-22T17:36:54.334Z,6
2023-03-22T17:42:24.940Z,2
2023-03-22T17:47:49.389Z,0
2023-03-22T17:53:51.121Z,0
2023-03-22T17:59:39.360Z,0
2023-03-22T18:05:02.080Z,0
2023-03-22T18:10:24.355Z,0
2023-03-22T18:15:47.078Z,0
2023-03-22T18:21:10.792Z,0
2023-03-22T18:26:45.713Z,0
2023-03-22T18:33:05.548Z,0
2023-03-22T18:39:47.460Z,0
2023-03-22T18:59:51.699Z,0
2023-03-22T19:05:13.886Z,0
2023-03-22T19:10:39.636Z,0
2023-03-22T19:16:11.376Z,0
2023-03-22T19:21:36.087Z,0
2023-03-22T19:27:19.796Z,0
2023-03-22T19:33:30.704Z,0
2023-03-22T19:39:18.371Z,0
2023-03-22T19:44:40.786Z,0
2023-03-22T19:50:03.357Z,0
2023-03-22T19:55:34.086Z,0
2023-03-22T20:00:59.545Z,0
2023-03-22T20:06:22.584Z,0
2023-03-22T20:11:45.396Z,0
2023-03-22T20:17:20.841Z,0
2023-03-22T20:22:49.251Z,0
2023-03-22T20:28:11.704Z,0
2023-03-22T20:33:34.145Z,0
2023-03-22T20:38:59.375Z,0
2023-03-22T20:44:21.885Z,0
2023-03-22T20:49:44.756Z,0
2023-03-22T20:55:07.518Z,0
2023-03-22T21:00:30.136Z,0
2023-03-22T21:05:53.678Z,0
2023-03-22T21:11:22.535Z,0
2023-03-22T21:16:48.286Z,0
2023-03-22T21:22:11.194Z,0
2023-03-22T21:27:37.164Z,0
2023-03-22T21:32:59.557Z,0
2023-03-22T21:38:22.442Z,0
2023-03-22T21:43:45.648Z,0
2023-03-22T21:49:08.162Z,0
2023-03-22T21:54:30.935Z,0
2023-03-22T22:00:02.949Z,0
2023-03-22T22:05:25.725Z,0
2023-03-22T22:10:56.075Z,0
2023-03-22T22:16:18.835Z,0
2023-03-22T22:22:04.931Z,0
2023-03-22T22:27:42.856Z,0
2023-03-22T22:33:51.644Z,0
2023-03-22T22:39:13.860Z,0
2023-03-22T22:44:38.986Z,0
2023-03-22T22:50:01.540Z,0
2023-03-22T22:55:45.209Z,0
2023-03-22T23:01:08.849Z,0
2023-03-22T23:06:31.259Z,0
2023-03-22T23:11:53.702Z,0
2023-03-22T23:17:19.129Z,0
2023-03-22T23:22:41.510Z,0
2023-03-22T23:28:07.514Z,0
2023-03-22T23:33:35.747Z,0
2023-03-22T23:38:58.558Z,0
2023-03-22T23:44:21.594Z,0
2023-03-22T23:49:44.549Z,0
2023-03-22T23:55:07.294Z,0
